sensor_id;sensor_type;location;lat;lon;timestamp;temperature;humidity
14378;DHT22;7272;53.668;9.578;2023-04-03T00:02:48;1.80;99.90
14378;DHT22;7272;53.668;9.578;2023-04-03T00:05:50;1.80;99.90
14378;DHT22;7272;53.668;9.578;2023-04-03T00:08:52;1.70;99.90
14378;DHT22;7272;53.668;9.578;2023-04-03T00:11:56;1.70;99.90
14378;DHT22;7272;53.668;9.578;2023-04-03T00:14:58;1.60;99.90
14378;DHT22;7272;53.668;9.578;2023-04-03T00:18:00;1.50;99.90
14378;DHT22;7272;53.668;9.578;2023-04-03T00:21:02;1.40;99.90
14378;DHT22;7272;53.668;9.578;2023-04-03T00:24:05;1.40;99.90
14378;DHT22;7272;53.668;9.578;2023-04-03T00:27:08;1.30;99.90
14378;DHT22;7272;53.668;9.578;2023-04-03T00:30:14;1.30;99.90
14378;DHT22;7272;53.668;9.578;2023-04-03T00:33:17;1.30;99.90
14378;DHT22;7272;53.668;9.578;2023-04-03T00:36:22;1.30;99.90
14378;DHT22;7272;53.668;9.578;2023-04-03T00:39:24;1.30;99.90
14378;DHT22;7272;53.668;9.578;2023-04-03T00:42:27;1.20;99.90
14378;DHT22;7272;53.668;9.578;2023-04-03T00:45:32;1.20;99.90
14378;DHT22;7272;53.668;9.578;2023-04-03T00:48:37;1.20;99.90
14378;DHT22;7272;53.668;9.578;2023-04-03T00:51:41;1.20;99.90
14378;DHT22;7272;53.668;9.578;2023-04-03T00:54:44;1.10;99.90
14378;DHT22;7272;53.668;9.578;2023-04-03T00:57:49;1.10;99.90
14378;DHT22;7272;53.668;9.578;2023-04-03T01:00:54;1.00;99.90
14378;DHT22;7272;53.668;9.578;2023-04-03T01:03:59;1.10;99.90
14378;DHT22;7272;53.668;9.578;2023-04-03T01:07:03;1.10;99.90
14378;DHT22;7272;53.668;9.578;2023-04-03T01:10:08;1.10;99.90
14378;DHT22;7272;53.668;9.578;2023-04-03T01:13:24;1.10;99.90
14378;DHT22;7272;53.668;9.578;2023-04-03T01:16:26;1.00;99.90
14378;DHT22;7272;53.668;9.578;2023-04-03T01:19:33;1.10;99.90
14378;DHT22;7272;53.668;9.578;2023-04-03T01:22:40;1.10;99.90
14378;DHT22;7272;53.668;9.578;2023-04-03T01:25:47;1.00;99.90
14378;DHT22;7272;53.668;9.578;2023-04-03T01:28:51;0.90;99.90
14378;DHT22;7272;53.668;9.578;2023-04-03T01:31:58;0.90;99.90
14378;DHT22;7272;53.668;9.578;2023-04-03T01:35:00;0.80;99.90
14378;DHT22;7272;53.668;9.578;2023-04-03T01:38:02;0.70;99.90
14378;DHT22;7272;53.668;9.578;2023-04-03T01:41:04;0.70;99.90
14378;DHT22;7272;53.668;9.578;2023-04-03T01:44:06;0.70;99.90
14378;DHT22;7272;53.668;9.578;2023-04-03T01:47:10;0.80;99.90
14378;DHT22;7272;53.668;9.578;2023-04-03T01:50:14;0.80;99.90
14378;DHT22;7272;53.668;9.578;2023-04-03T01:53:16;0.80;99.90
14378;DHT22;7272;53.668;9.578;2023-04-03T01:56:18;0.90;99.90
14378;DHT22;7272;53.668;9.578;2023-04-03T01:59:20;0.90;99.90
14378;DHT22;7272;53.668;9.578;2023-04-03T02:02:24;0.90;99.90
14378;DHT22;7272;53.668;9.578;2023-04-03T02:05:26;0.90;99.90
14378;DHT22;7272;53.668;9.578;2023-04-03T02:08:28;1.00;99.90
14378;DHT22;7272;53.668;9.578;2023-04-03T02:11:31;0.90;99.90
14378;DHT22;7272;53.668;9.578;2023-04-03T02:14:33;1.00;99.90
14378;DHT22;7272;53.668;9.578;2023-04-03T02:17:36;1.00;99.90
14378;DHT22;7272;53.668;9.578;2023-04-03T02:20:38;1.00;99.90
14378;DHT22;7272;53.668;9.578;2023-04-03T02:23:40;0.90;99.90
14378;DHT22;7272;53.668;9.578;2023-04-03T02:26:42;0.80;99.90
14378;DHT22;7272;53.668;9.578;2023-04-03T02:29:44;0.70;99.90
14378;DHT22;7272;53.668;9.578;2023-04-03T02:32:47;0.60;99.90
14378;DHT22;7272;53.668;9.578;2023-04-03T02:35:52;0.60;99.90
14378;DHT22;7272;53.668;9.578;2023-04-03T02:38:56;0.50;99.90
14378;DHT22;7272;53.668;9.578;2023-04-03T02:41:58;0.60;99.90
14378;DHT22;7272;53.668;9.578;2023-04-03T02:45:02;0.60;99.90
14378;DHT22;7272;53.668;9.578;2023-04-03T02:48:06;0.60;99.90
14378;DHT22;7272;53.668;9.578;2023-04-03T02:51:08;0.60;99.90
14378;DHT22;7272;53.668;9.578;2023-04-03T02:54:10;0.60;99.90
14378;DHT22;7272;53.668;9.578;2023-04-03T02:57:15;0.60;99.90
14378;DHT22;7272;53.668;9.578;2023-04-03T03:00:18;0.70;99.90
14378;DHT22;7272;53.668;9.578;2023-04-03T03:03:21;0.60;99.90
14378;DHT22;7272;53.668;9.578;2023-04-03T03:06:23;0.60;99.90
14378;DHT22;7272;53.668;9.578;2023-04-03T03:09:26;0.50;99.90
14378;DHT22;7272;53.668;9.578;2023-04-03T03:12:28;0.50;99.90
14378;DHT22;7272;53.668;9.578;2023-04-03T03:15:30;0.50;99.90
14378;DHT22;7272;53.668;9.578;2023-04-03T03:18:34;0.40;99.90
14378;DHT22;7272;53.668;9.578;2023-04-03T03:21:36;0.40;99.90
14378;DHT22;7272;53.668;9.578;2023-04-03T03:24:38;0.40;99.90
14378;DHT22;7272;53.668;9.578;2023-04-03T03:27:40;0.40;99.90
14378;DHT22;7272;53.668;9.578;2023-04-03T03:30:42;0.40;99.90
14378;DHT22;7272;53.668;9.578;2023-04-03T03:33:45;0.40;99.90
14378;DHT22;7272;53.668;9.578;2023-04-03T03:36:47;0.40;99.90
14378;DHT22;7272;53.668;9.578;2023-04-03T03:39:49;0.30;99.90
14378;DHT22;7272;53.668;9.578;2023-04-03T03:42:51;0.40;99.90
14378;DHT22;7272;53.668;9.578;2023-04-03T03:45:53;0.40;99.90
14378;DHT22;7272;53.668;9.578;2023-04-03T03:48:59;0.40;99.90
14378;DHT22;7272;53.668;9.578;2023-04-03T03:52:01;0.40;99.90
14378;DHT22;7272;53.668;9.578;2023-04-03T03:55:03;0.50;99.90
14378;DHT22;7272;53.668;9.578;2023-04-03T03:58:06;0.50;99.90
14378;DHT22;7272;53.668;9.578;2023-04-03T04:01:09;0.40;99.90
14378;DHT22;7272;53.668;9.578;2023-04-03T04:04:21;0.40;99.90
14378;DHT22;7272;53.668;9.578;2023-04-03T04:07:24;0.30;99.90
14378;DHT22;7272;53.668;9.578;2023-04-03T04:10:29;0.30;99.90
14378;DHT22;7272;53.668;9.578;2023-04-03T04:13:32;0.30;99.90
14378;DHT22;7272;53.668;9.578;2023-04-03T04:16:35;0.30;99.90
14378;DHT22;7272;53.668;9.578;2023-04-03T04:19:44;0.30;99.90
14378;DHT22;7272;53.668;9.578;2023-04-03T04:22:46;0.20;99.90
14378;DHT22;7272;53.668;9.578;2023-04-03T04:25:48;0.20;99.90
14378;DHT22;7272;53.668;9.578;2023-04-03T04:28:51;0.20;99.90
14378;DHT22;7272;53.668;9.578;2023-04-03T04:31:54;0.20;99.90
14378;DHT22;7272;53.668;9.578;2023-04-03T04:34:58;0.10;99.90
14378;DHT22;7272;53.668;9.578;2023-04-03T04:38:03;0.10;99.90
14378;DHT22;7272;53.668;9.578;2023-04-03T04:41:06;0.10;99.90
14378;DHT22;7272;53.668;9.578;2023-04-03T04:44:09;0.10;99.90
14378;DHT22;7272;53.668;9.578;2023-04-03T04:47:14;0.10;99.90
14378;DHT22;7272;53.668;9.578;2023-04-03T04:50:18;0.20;99.90
14378;DHT22;7272;53.668;9.578;2023-04-03T04:53:20;0.20;99.90
14378;DHT22;7272;53.668;9.578;2023-04-03T04:56:22;0.20;99.90
14378;DHT22;7272;53.668;9.578;2023-04-03T04:59:27;0.20;99.90
14378;DHT22;7272;53.668;9.578;2023-04-03T05:02:33;0.30;99.90
14378;DHT22;7272;53.668;9.578;2023-04-03T05:05:37;0.30;99.90
14378;DHT22;7272;53.668;9.578;2023-04-03T05:08:39;0.30;99.90
14378;DHT22;7272;53.668;9.578;2023-04-03T05:11:42;0.30;99.90
14378;DHT22;7272;53.668;9.578;2023-04-03T05:14:45;0.40;99.90
14378;DHT22;7272;53.668;9.578;2023-04-03T05:17:47;0.40;99.90
14378;DHT22;7272;53.668;9.578;2023-04-03T05:20:51;0.40;99.90
14378;DHT22;7272;53.668;9.578;2023-04-03T05:23:54;0.50;99.90
14378;DHT22;7272;53.668;9.578;2023-04-03T05:26:57;0.60;99.90
14378;DHT22;7272;53.668;9.578;2023-04-03T05:29:59;0.60;99.90
14378;DHT22;7272;53.668;9.578;2023-04-03T05:33:01;0.70;99.90
14378;DHT22;7272;53.668;9.578;2023-04-03T05:36:19;0.60;99.90
14378;DHT22;7272;53.668;9.578;2023-04-03T05:39:24;0.60;99.90
14378;DHT22;7272;53.668;9.578;2023-04-03T05:42:27;0.60;99.90
14378;DHT22;7272;53.668;9.578;2023-04-03T05:45:29;0.70;99.90
14378;DHT22;7272;53.668;9.578;2023-04-03T05:48:32;0.70;99.90
14378;DHT22;7272;53.668;9.578;2023-04-03T05:51:37;0.80;99.90
14378;DHT22;7272;53.668;9.578;2023-04-03T05:55:00;0.80;99.90
14378;DHT22;7272;53.668;9.578;2023-04-03T05:58:05;0.80;99.90
14378;DHT22;7272;53.668;9.578;2023-04-03T06:01:07;0.80;99.90
14378;DHT22;7272;53.668;9.578;2023-04-03T06:04:10;0.90;99.90
14378;DHT22;7272;53.668;9.578;2023-04-03T06:07:16;1.00;99.90
14378;DHT22;7272;53.668;9.578;2023-04-03T06:10:19;1.10;99.90
14378;DHT22;7272;53.668;9.578;2023-04-03T06:13:21;1.20;99.90
14378;DHT22;7272;53.668;9.578;2023-04-03T06:16:25;1.30;99.90
14378;DHT22;7272;53.668;9.578;2023-04-03T06:19:27;1.40;99.90
14378;DHT22;7272;53.668;9.578;2023-04-03T06:22:32;1.50;99.90
14378;DHT22;7272;53.668;9.578;2023-04-03T06:25:36;1.60;99.90
14378;DHT22;7272;53.668;9.578;2023-04-03T06:28:38;1.60;99.90
14378;DHT22;7272;53.668;9.578;2023-04-03T06:31:39;1.70;99.90
14378;DHT22;7272;53.668;9.578;2023-04-03T06:34:42;1.80;99.90
14378;DHT22;7272;53.668;9.578;2023-04-03T06:37:45;1.90;99.90
14378;DHT22;7272;53.668;9.578;2023-04-03T06:40:48;2.00;99.90
14378;DHT22;7272;53.668;9.578;2023-04-03T06:43:50;2.10;99.90
14378;DHT22;7272;53.668;9.578;2023-04-03T06:46:52;2.10;99.90
14378;DHT22;7272;53.668;9.578;2023-04-03T06:49:55;2.20;99.90
14378;DHT22;7272;53.668;9.578;2023-04-03T06:52:59;2.30;99.90
14378;DHT22;7272;53.668;9.578;2023-04-03T06:56:05;2.40;99.90
14378;DHT22;7272;53.668;9.578;2023-04-03T06:59:07;2.50;99.90
14378;DHT22;7272;53.668;9.578;2023-04-03T07:02:12;2.60;99.90
14378;DHT22;7272;53.668;9.578;2023-04-03T07:05:15;2.70;99.90
14378;DHT22;7272;53.668;9.578;2023-04-03T07:08:19;2.80;99.90
14378;DHT22;7272;53.668;9.578;2023-04-03T07:11:21;2.90;99.90
14378;DHT22;7272;53.668;9.578;2023-04-03T07:14:25;3.00;99.90
14378;DHT22;7272;53.668;9.578;2023-04-03T07:17:28;3.10;99.90
14378;DHT22;7272;53.668;9.578;2023-04-03T07:20:32;3.30;99.90
14378;DHT22;7272;53.668;9.578;2023-04-03T07:23:36;3.50;99.90
14378;DHT22;7272;53.668;9.578;2023-04-03T07:26:38;3.60;99.90
14378;DHT22;7272;53.668;9.578;2023-04-03T07:29:40;3.70;99.90
14378;DHT22;7272;53.668;9.578;2023-04-03T07:32:43;3.90;99.90
14378;DHT22;7272;53.668;9.578;2023-04-03T07:35:46;4.00;99.90
14378;DHT22;7272;53.668;9.578;2023-04-03T07:38:49;4.10;99.90
14378;DHT22;7272;53.668;9.578;2023-04-03T07:41:51;4.20;99.90
14378;DHT22;7272;53.668;9.578;2023-04-03T07:44:53;4.30;99.90
14378;DHT22;7272;53.668;9.578;2023-04-03T07:47:56;4.60;99.90
14378;DHT22;7272;53.668;9.578;2023-04-03T07:50:59;5.00;99.90
14378;DHT22;7272;53.668;9.578;2023-04-03T07:54:03;5.10;99.90
14378;DHT22;7272;53.668;9.578;2023-04-03T07:57:05;5.30;99.90
14378;DHT22;7272;53.668;9.578;2023-04-03T08:00:09;5.40;99.90
14378;DHT22;7272;53.668;9.578;2023-04-03T08:03:15;5.60;99.90
14378;DHT22;7272;53.668;9.578;2023-04-03T08:06:18;5.90;99.90
14378;DHT22;7272;53.668;9.578;2023-04-03T08:09:21;6.10;99.90
14378;DHT22;7272;53.668;9.578;2023-04-03T08:12:23;6.30;99.90
14378;DHT22;7272;53.668;9.578;2023-04-03T08:15:25;6.40;99.90
14378;DHT22;7272;53.668;9.578;2023-04-03T08:18:27;6.70;99.90
14378;DHT22;7272;53.668;9.578;2023-04-03T08:21:30;6.80;99.90
14378;DHT22;7272;53.668;9.578;2023-04-03T08:24:33;6.90;99.90
14378;DHT22;7272;53.668;9.578;2023-04-03T08:27:35;7.10;99.90
14378;DHT22;7272;53.668;9.578;2023-04-03T08:30:39;7.20;99.90
14378;DHT22;7272;53.668;9.578;2023-04-03T08:33:44;7.40;99.90
14378;DHT22;7272;53.668;9.578;2023-04-03T08:36:47;7.50;99.90
14378;DHT22;7272;53.668;9.578;2023-04-03T08:39:51;7.60;99.90
14378;DHT22;7272;53.668;9.578;2023-04-03T08:43:05;7.90;99.90
14378;DHT22;7272;53.668;9.578;2023-04-03T08:46:14;8.00;99.90
14378;DHT22;7272;53.668;9.578;2023-04-03T08:49:22;8.00;99.90
14378;DHT22;7272;53.668;9.578;2023-04-03T08:52:32;7.90;99.90
14378;DHT22;7272;53.668;9.578;2023-04-03T08:55:42;8.00;99.90
14378;DHT22;7272;53.668;9.578;2023-04-03T08:58:48;8.00;99.90
14378;DHT22;7272;53.668;9.578;2023-04-03T09:01:54;8.10;99.90
14378;DHT22;7272;53.668;9.578;2023-04-03T09:04:56;8.30;99.90
14378;DHT22;7272;53.668;9.578;2023-04-03T09:08:03;8.30;99.90
14378;DHT22;7272;53.668;9.578;2023-04-03T09:11:16;8.30;99.90
14378;DHT22;7272;53.668;9.578;2023-04-03T09:14:28;8.40;99.90
14378;DHT22;7272;53.668;9.578;2023-04-03T09:17:41;8.60;99.90
14378;DHT22;7272;53.668;9.578;2023-04-03T09:20:48;8.50;99.90
14378;DHT22;7272;53.668;9.578;2023-04-03T09:23:53;8.80;99.90
14378;DHT22;7272;53.668;9.578;2023-04-03T09:27:03;8.80;99.90
14378;DHT22;7272;53.668;9.578;2023-04-03T09:30:12;8.90;99.90
14378;DHT22;7272;53.668;9.578;2023-04-03T09:33:16;8.70;99.90
14378;DHT22;7272;53.668;9.578;2023-04-03T09:36:40;8.60;99.90
14378;DHT22;7272;53.668;9.578;2023-04-03T09:39:53;8.60;99.90
14378;DHT22;7272;53.668;9.578;2023-04-03T09:42:59;8.80;99.90
14378;DHT22;7272;53.668;9.578;2023-04-03T09:46:24;9.10;99.90
14378;DHT22;7272;53.668;9.578;2023-04-03T09:49:27;9.30;99.90
14378;DHT22;7272;53.668;9.578;2023-04-03T09:52:29;9.60;99.90
14378;DHT22;7272;53.668;9.578;2023-04-03T09:55:32;9.90;99.90
14378;DHT22;7272;53.668;9.578;2023-04-03T09:58:38;10.20;99.90
14378;DHT22;7272;53.668;9.578;2023-04-03T10:01:42;10.50;99.90
14378;DHT22;7272;53.668;9.578;2023-04-03T10:04:47;10.30;99.90
14378;DHT22;7272;53.668;9.578;2023-04-03T10:07:50;10.10;99.90
14378;DHT22;7272;53.668;9.578;2023-04-03T10:11:13;10.60;99.90
14378;DHT22;7272;53.668;9.578;2023-04-03T10:14:17;10.80;99.90
14378;DHT22;7272;53.668;9.578;2023-04-03T10:17:26;10.80;99.90
14378;DHT22;7272;53.668;9.578;2023-04-03T10:20:34;10.50;99.90
14378;DHT22;7272;53.668;9.578;2023-04-03T10:23:43;10.60;99.90
14378;DHT22;7272;53.668;9.578;2023-04-03T10:26:52;10.70;99.90
14378;DHT22;7272;53.668;9.578;2023-04-03T10:30:01;11.20;99.90
14378;DHT22;7272;53.668;9.578;2023-04-03T10:33:23;11.30;99.90
14378;DHT22;7272;53.668;9.578;2023-04-03T10:36:36;11.20;99.90
14378;DHT22;7272;53.668;9.578;2023-04-03T10:39:46;11.40;99.90
14378;DHT22;7272;53.668;9.578;2023-04-03T10:42:57;11.30;99.90
14378;DHT22;7272;53.668;9.578;2023-04-03T10:46:06;10.60;99.90
14378;DHT22;7272;53.668;9.578;2023-04-03T10:49:19;10.50;99.90
14378;DHT22;7272;53.668;9.578;2023-04-03T10:52:24;10.60;99.90
14378;DHT22;7272;53.668;9.578;2023-04-03T10:55:34;10.90;99.90
14378;DHT22;7272;53.668;9.578;2023-04-03T10:58:40;11.30;99.90
14378;DHT22;7272;53.668;9.578;2023-04-03T11:01:47;11.60;99.90
14378;DHT22;7272;53.668;9.578;2023-04-03T11:04:52;11.50;99.90
14378;DHT22;7272;53.668;9.578;2023-04-03T11:07:55;11.60;99.90
14378;DHT22;7272;53.668;9.578;2023-04-03T11:11:01;11.70;99.90
14378;DHT22;7272;53.668;9.578;2023-04-03T11:14:11;12.00;99.90
14378;DHT22;7272;53.668;9.578;2023-04-03T11:17:27;12.30;99.90
14378;DHT22;7272;53.668;9.578;2023-04-03T11:20:32;12.20;99.90
14378;DHT22;7272;53.668;9.578;2023-04-03T11:23:36;12.10;99.90
14378;DHT22;7272;53.668;9.578;2023-04-03T11:26:40;12.20;99.90
14378;DHT22;7272;53.668;9.578;2023-04-03T11:29:45;12.40;99.90
14378;DHT22;7272;53.668;9.578;2023-04-03T11:33:21;12.70;99.90
14378;DHT22;7272;53.668;9.578;2023-04-03T11:36:27;13.00;99.90
14378;DHT22;7272;53.668;9.578;2023-04-03T11:39:34;13.10;99.90
14378;DHT22;7272;53.668;9.578;2023-04-03T11:42:38;13.10;99.90
14378;DHT22;7272;53.668;9.578;2023-04-03T11:45:52;12.80;99.90
14378;DHT22;7272;53.668;9.578;2023-04-03T11:48:57;12.30;99.90
14378;DHT22;7272;53.668;9.578;2023-04-03T11:52:02;12.50;99.90
14378;DHT22;7272;53.668;9.578;2023-04-03T12:10:17;13.80;99.90
14378;DHT22;7272;53.668;9.578;2023-04-03T12:13:19;13.60;99.90
14378;DHT22;7272;53.668;9.578;2023-04-03T12:16:24;12.70;99.90
14378;DHT22;7272;53.668;9.578;2023-04-03T12:19:31;12.00;99.90
14378;DHT22;7272;53.668;9.578;2023-04-03T12:22:34;11.60;99.90
14378;DHT22;7272;53.668;9.578;2023-04-03T12:25:50;11.40;99.90
14378;DHT22;7272;53.668;9.578;2023-04-03T12:28:53;11.60;99.90
14378;DHT22;7272;53.668;9.578;2023-04-03T12:32:07;11.90;99.90
14378;DHT22;7272;53.668;9.578;2023-04-03T12:35:18;11.60;99.90
14378;DHT22;7272;53.668;9.578;2023-04-03T12:42:15;10.30;99.90
14378;DHT22;7272;53.668;9.578;2023-04-03T12:45:20;9.80;99.90
14378;DHT22;7272;53.668;9.578;2023-04-03T12:48:25;9.50;99.90
14378;DHT22;7272;53.668;9.578;2023-04-03T12:51:32;9.40;99.90
14378;DHT22;7272;53.668;9.578;2023-04-03T12:54:39;9.80;99.90
14378;DHT22;7272;53.668;9.578;2023-04-03T12:57:43;10.60;99.90
14378;DHT22;7272;53.668;9.578;2023-04-03T13:00:46;10.80;99.90
14378;DHT22;7272;53.668;9.578;2023-04-03T13:03:50;10.50;99.90
14378;DHT22;7272;53.668;9.578;2023-04-03T13:06:53;10.50;99.90
14378;DHT22;7272;53.668;9.578;2023-04-03T13:10:00;10.50;99.90
14378;DHT22;7272;53.668;9.578;2023-04-03T13:13:09;10.80;99.90
14378;DHT22;7272;53.668;9.578;2023-04-03T13:16:12;10.80;99.90
14378;DHT22;7272;53.668;9.578;2023-04-03T13:19:17;11.40;99.90
14378;DHT22;7272;53.668;9.578;2023-04-03T13:22:26;11.70;99.90
14378;DHT22;7272;53.668;9.578;2023-04-03T13:25:31;11.50;99.90
14378;DHT22;7272;53.668;9.578;2023-04-03T13:28:37;11.20;99.90
14378;DHT22;7272;53.668;9.578;2023-04-03T13:31:41;11.30;99.90
14378;DHT22;7272;53.668;9.578;2023-04-03T13:34:43;11.30;99.90
14378;DHT22;7272;53.668;9.578;2023-04-03T13:37:55;11.10;99.90
14378;DHT22;7272;53.668;9.578;2023-04-03T13:40:59;11.10;99.90
14378;DHT22;7272;53.668;9.578;2023-04-03T13:44:25;11.40;99.90
14378;DHT22;7272;53.668;9.578;2023-04-03T13:47:38;12.00;99.90
14378;DHT22;7272;53.668;9.578;2023-04-03T13:50:56;12.50;99.90
14378;DHT22;7272;53.668;9.578;2023-04-03T13:54:01;12.50;99.90
14378;DHT22;7272;53.668;9.578;2023-04-03T13:57:11;12.00;99.90
14378;DHT22;7272;53.668;9.578;2023-04-03T14:00:30;11.60;99.90
14378;DHT22;7272;53.668;9.578;2023-04-03T14:03:37;11.30;99.90
14378;DHT22;7272;53.668;9.578;2023-04-03T14:06:40;11.00;99.90
14378;DHT22;7272;53.668;9.578;2023-04-03T14:09:42;10.90;99.90
14378;DHT22;7272;53.668;9.578;2023-04-03T14:12:44;11.30;99.90
14378;DHT22;7272;53.668;9.578;2023-04-03T14:15:49;11.70;99.90
14378;DHT22;7272;53.668;9.578;2023-04-03T14:18:51;12.00;99.90
14378;DHT22;7272;53.668;9.578;2023-04-03T14:21:54;11.70;99.90
14378;DHT22;7272;53.668;9.578;2023-04-03T14:24:57;11.70;99.90
14378;DHT22;7272;53.668;9.578;2023-04-03T14:27:59;12.20;99.90
14378;DHT22;7272;53.668;9.578;2023-04-03T14:31:02;12.80;99.90
14378;DHT22;7272;53.668;9.578;2023-04-03T14:34:05;13.00;99.90
14378;DHT22;7272;53.668;9.578;2023-04-03T14:37:11;13.00;99.90
14378;DHT22;7272;53.668;9.578;2023-04-03T14:40:16;12.70;99.90
14378;DHT22;7272;53.668;9.578;2023-04-03T14:43:18;12.40;99.90
14378;DHT22;7272;53.668;9.578;2023-04-03T14:46:25;12.30;99.90
14378;DHT22;7272;53.668;9.578;2023-04-03T14:49:28;12.10;99.90
14378;DHT22;7272;53.668;9.578;2023-04-03T14:52:33;12.10;99.90
14378;DHT22;7272;53.668;9.578;2023-04-03T14:55:35;12.10;99.90
14378;DHT22;7272;53.668;9.578;2023-04-03T14:58:37;11.90;99.90
14378;DHT22;7272;53.668;9.578;2023-04-03T15:01:40;11.90;99.90
14378;DHT22;7272;53.668;9.578;2023-04-03T15:04:42;12.20;99.90
14378;DHT22;7272;53.668;9.578;2023-04-03T15:07:47;12.20;99.90
14378;DHT22;7272;53.668;9.578;2023-04-03T15:10:50;12.10;99.90
14378;DHT22;7272;53.668;9.578;2023-04-03T15:13:53;11.70;99.90
14378;DHT22;7272;53.668;9.578;2023-04-03T15:16:56;11.60;99.90
14378;DHT22;7272;53.668;9.578;2023-04-03T15:19:58;11.30;99.90
14378;DHT22;7272;53.668;9.578;2023-04-03T15:23:00;10.90;99.90
14378;DHT22;7272;53.668;9.578;2023-04-03T15:26:03;10.90;99.90
14378;DHT22;7272;53.668;9.578;2023-04-03T15:29:05;10.80;99.90
14378;DHT22;7272;53.668;9.578;2023-04-03T15:32:08;10.80;99.90
14378;DHT22;7272;53.668;9.578;2023-04-03T15:35:10;10.90;99.90
14378;DHT22;7272;53.668;9.578;2023-04-03T15:38:12;10.90;99.90
14378;DHT22;7272;53.668;9.578;2023-04-03T15:41:14;10.80;99.90
14378;DHT22;7272;53.668;9.578;2023-04-03T15:44:16;10.70;99.90
14378;DHT22;7272;53.668;9.578;2023-04-03T15:47:20;10.80;99.90
14378;DHT22;7272;53.668;9.578;2023-04-03T15:50:22;10.80;99.90
14378;DHT22;7272;53.668;9.578;2023-04-03T15:53:24;10.90;99.90
14378;DHT22;7272;53.668;9.578;2023-04-03T15:56:26;10.80;99.90
14378;DHT22;7272;53.668;9.578;2023-04-03T15:59:28;10.60;99.90
14378;DHT22;7272;53.668;9.578;2023-04-03T16:02:33;10.50;99.90
14378;DHT22;7272;53.668;9.578;2023-04-03T16:05:36;10.40;99.90
14378;DHT22;7272;53.668;9.578;2023-04-03T16:08:39;10.30;99.90
14378;DHT22;7272;53.668;9.578;2023-04-03T16:11:41;10.20;99.90
14378;DHT22;7272;53.668;9.578;2023-04-03T16:14:43;10.00;99.90
14378;DHT22;7272;53.668;9.578;2023-04-03T16:17:47;10.00;99.90
14378;DHT22;7272;53.668;9.578;2023-04-03T16:20:49;9.90;99.90
14378;DHT22;7272;53.668;9.578;2023-04-03T16:23:51;9.90;99.90
14378;DHT22;7272;53.668;9.578;2023-04-03T16:26:53;10.00;99.90
14378;DHT22;7272;53.668;9.578;2023-04-03T16:29:55;10.00;99.90
14378;DHT22;7272;53.668;9.578;2023-04-03T16:32:58;9.80;99.90
14378;DHT22;7272;53.668;9.578;2023-04-03T16:36:00;9.60;99.90
14378;DHT22;7272;53.668;9.578;2023-04-03T16:39:03;9.50;99.90
14378;DHT22;7272;53.668;9.578;2023-04-03T16:42:05;9.40;99.90
14378;DHT22;7272;53.668;9.578;2023-04-03T16:45:10;9.20;99.90
14378;DHT22;7272;53.668;9.578;2023-04-03T16:48:13;9.00;99.90
14378;DHT22;7272;53.668;9.578;2023-04-03T16:51:15;8.90;99.90
14378;DHT22;7272;53.668;9.578;2023-04-03T16:54:17;8.90;99.90
14378;DHT22;7272;53.668;9.578;2023-04-03T16:57:19;8.80;99.90
14378;DHT22;7272;53.668;9.578;2023-04-03T17:00:21;8.80;99.90
14378;DHT22;7272;53.668;9.578;2023-04-03T17:03:25;8.80;99.90
14378;DHT22;7272;53.668;9.578;2023-04-03T17:06:28;8.70;99.90
14378;DHT22;7272;53.668;9.578;2023-04-03T17:09:31;8.60;99.90
14378;DHT22;7272;53.668;9.578;2023-04-03T17:12:33;8.50;99.90
14378;DHT22;7272;53.668;9.578;2023-04-03T17:15:36;8.50;99.90
14378;DHT22;7272;53.668;9.578;2023-04-03T17:18:40;8.50;99.90
14378;DHT22;7272;53.668;9.578;2023-04-03T17:21:42;8.30;99.90
14378;DHT22;7272;53.668;9.578;2023-04-03T17:24:44;8.10;99.90
14378;DHT22;7272;53.668;9.578;2023-04-03T17:27:46;8.00;99.90
14378;DHT22;7272;53.668;9.578;2023-04-03T17:30:48;7.80;99.90
14378;DHT22;7272;53.668;9.578;2023-04-03T17:33:52;7.60;99.90
14378;DHT22;7272;53.668;9.578;2023-04-03T17:36:54;7.50;99.90
14378;DHT22;7272;53.668;9.578;2023-04-03T17:39:56;7.40;99.90
14378;DHT22;7272;53.668;9.578;2023-04-03T17:42:58;7.30;99.90
14378;DHT22;7272;53.668;9.578;2023-04-03T17:46:01;7.20;99.90
14378;DHT22;7272;53.668;9.578;2023-04-03T17:49:05;7.20;99.90
14378;DHT22;7272;53.668;9.578;2023-04-03T17:52:07;7.00;99.90
14378;DHT22;7272;53.668;9.578;2023-04-03T17:55:09;6.90;99.90
14378;DHT22;7272;53.668;9.578;2023-04-03T17:58:12;6.80;99.90
14378;DHT22;7272;53.668;9.578;2023-04-03T18:01:17;6.80;99.90
14378;DHT22;7272;53.668;9.578;2023-04-03T18:04:20;6.70;99.90
14378;DHT22;7272;53.668;9.578;2023-04-03T18:07:23;6.60;99.90
14378;DHT22;7272;53.668;9.578;2023-04-03T18:10:25;6.60;99.90
14378;DHT22;7272;53.668;9.578;2023-04-03T18:13:27;6.40;99.90
14378;DHT22;7272;53.668;9.578;2023-04-03T18:16:30;6.30;99.90
14378;DHT22;7272;53.668;9.578;2023-04-03T18:19:33;6.30;99.90
14378;DHT22;7272;53.668;9.578;2023-04-03T18:22:35;6.20;99.90
14378;DHT22;7272;53.668;9.578;2023-04-03T18:25:37;6.20;99.90
14378;DHT22;7272;53.668;9.578;2023-04-03T18:28:41;6.10;99.90
14378;DHT22;7272;53.668;9.578;2023-04-03T18:31:46;6.00;99.90
14378;DHT22;7272;53.668;9.578;2023-04-03T18:34:50;5.90;99.90
14378;DHT22;7272;53.668;9.578;2023-04-03T18:37:52;5.80;99.90
14378;DHT22;7272;53.668;9.578;2023-04-03T18:40:54;5.80;99.90
14378;DHT22;7272;53.668;9.578;2023-04-03T18:43:57;5.80;99.90
14378;DHT22;7272;53.668;9.578;2023-04-03T18:47:00;5.70;99.90
14378;DHT22;7272;53.668;9.578;2023-04-03T18:50:04;5.70;99.90
14378;DHT22;7272;53.668;9.578;2023-04-03T18:53:07;5.60;99.90
14378;DHT22;7272;53.668;9.578;2023-04-03T18:56:09;5.50;99.90
14378;DHT22;7272;53.668;9.578;2023-04-03T18:59:11;5.40;99.90
14378;DHT22;7272;53.668;9.578;2023-04-03T19:02:13;5.30;99.90
14378;DHT22;7272;53.668;9.578;2023-04-03T19:05:17;5.20;99.90
14378;DHT22;7272;53.668;9.578;2023-04-03T19:08:20;5.20;99.90
14378;DHT22;7272;53.668;9.578;2023-04-03T19:11:23;5.20;99.90
14378;DHT22;7272;53.668;9.578;2023-04-03T19:14:25;5.10;99.90
14378;DHT22;7272;53.668;9.578;2023-04-03T19:17:26;5.10;99.90
14378;DHT22;7272;53.668;9.578;2023-04-03T19:20:30;5.00;99.90
14378;DHT22;7272;53.668;9.578;2023-04-03T19:23:32;5.00;99.90
14378;DHT22;7272;53.668;9.578;2023-04-03T19:26:34;5.00;99.90
14378;DHT22;7272;53.668;9.578;2023-04-03T19:29:36;4.90;99.90
14378;DHT22;7272;53.668;9.578;2023-04-03T19:32:38;4.80;99.90
14378;DHT22;7272;53.668;9.578;2023-04-03T19:35:41;4.80;99.90
14378;DHT22;7272;53.668;9.578;2023-04-03T19:38:43;4.60;99.90
14378;DHT22;7272;53.668;9.578;2023-04-03T19:41:45;4.60;99.90
14378;DHT22;7272;53.668;9.578;2023-04-03T19:44:48;4.50;99.90
14378;DHT22;7272;53.668;9.578;2023-04-03T19:47:50;4.50;99.90
14378;DHT22;7272;53.668;9.578;2023-04-03T19:50:53;4.40;99.90
14378;DHT22;7272;53.668;9.578;2023-04-03T19:53:55;4.40;99.90
14378;DHT22;7272;53.668;9.578;2023-04-03T19:56:57;4.20;99.90
14378;DHT22;7272;53.668;9.578;2023-04-03T19:59:59;4.10;99.90
14378;DHT22;7272;53.668;9.578;2023-04-03T20:03:01;4.10;99.90
14378;DHT22;7272;53.668;9.578;2023-04-03T20:06:05;4.00;99.90
14378;DHT22;7272;53.668;9.578;2023-04-03T20:09:07;4.00;99.90
14378;DHT22;7272;53.668;9.578;2023-04-03T20:12:09;3.90;99.90
14378;DHT22;7272;53.668;9.578;2023-04-03T20:15:11;3.90;99.90
14378;DHT22;7272;53.668;9.578;2023-04-03T20:18:15;3.90;99.90